Terminal Aerodrome Forecast
Issued by NWS Louisville, KY

Home | Current Version | Previous Version | Text Only | Print | Product List | Glossary On
Versions: 1 2 3 4 5 6 7 8 9 10 11 12 13 14 15
000
FTUS43 KLMK 292326
TAFBWG
TAF
KBWG 292326Z 3000/3024 19014G19KT P6SM FEW200
     FM300400 18009KT P6SM FEW250 WS020/17045KT
     FM301400 18019G26KT P6SM SCT080 BKN250=

USA.gov is the U.S. government's official web portal to all federal, state and local government web resources and services.